createdAt,value
2022-12-27T00:00:10.827Z,102467.98
2022-12-27T00:02:39.538Z,102466.35
2022-12-27T00:05:10.255Z,102469.59
2022-12-27T00:07:38.413Z,102474.82
2022-12-27T00:10:07.948Z,102486.30
2022-12-27T00:12:36.275Z,102490.80
2022-12-27T00:15:05.245Z,102487.11
2022-12-27T00:17:32.875Z,102479.40
2022-12-27T00:20:05.400Z,102480.21
2022-12-27T00:22:38.349Z,102477.01
2022-12-27T00:25:06.547Z,102483.94
2022-12-27T00:27:34.271Z,102491.69
2022-12-27T00:30:01.917Z,102481.16
2022-12-27T00:32:29.631Z,102495.78
2022-12-27T00:34:57.328Z,102492.57
2022-12-27T00:37:25.078Z,102499.08
2022-12-27T00:39:52.850Z,102503.98
2022-12-27T00:42:20.522Z,102504.34
2022-12-27T00:44:48.318Z,102511.60
2022-12-27T00:47:15.981Z,102514.02
2022-12-27T00:49:43.705Z,102516.48
2022-12-27T00:52:11.403Z,102513.17
2022-12-27T00:54:39.163Z,102519.75
2022-12-27T00:57:06.863Z,102524.26
2022-12-27T00:59:34.661Z,102527.53
2022-12-27T01:02:02.452Z,102540.58
2022-12-27T01:04:30.191Z,102553.59
2022-12-27T01:06:57.827Z,102545.45
2022-12-27T01:09:25.526Z,102549.51
2022-12-27T01:11:53.272Z,102553.59
2022-12-27T01:14:21.042Z,102551.17
2022-12-27T01:16:48.844Z,102554.02
2022-12-27T01:19:16.617Z,102564.61
2022-12-27T01:21:44.446Z,102571.64
2022-12-27T01:24:12.107Z,102578.64
2022-12-27T01:26:39.791Z,102574.16
2022-12-27T01:29:07.471Z,102577.43
2022-12-27T01:31:35.383Z,102577.07
2022-12-27T01:34:03.195Z,102577.49
2022-12-27T01:36:32.618Z,102581.59
2022-12-27T01:39:01.217Z,102587.34
2022-12-27T01:41:51.498Z,102594.63
2022-12-27T01:44:50.648Z,102595.16
2022-12-27T01:47:30.521Z,102600.45
2022-12-27T01:50:00.591Z,102594.04
2022-12-27T01:52:35.278Z,102607.52
2022-12-27T01:55:09.878Z,102617.65
2022-12-27T01:57:37.987Z,102621.77
2022-12-27T02:00:06.359Z,102627.89
2022-12-27T02:02:34.530Z,102630.34
2022-12-27T02:05:02.337Z,102642.18
2022-12-27T02:07:42.372Z,102643.87
2022-12-27T02:10:10.166Z,102649.63
2022-12-27T02:12:39.544Z,102647.21
2022-12-27T02:15:07.551Z,102650.52
2022-12-27T02:17:36.133Z,102656.23
2022-12-27T02:20:11.170Z,102653.03
2022-12-27T02:23:16.462Z,102656.30
2022-12-27T02:26:04.069Z,102659.57
2022-12-27T02:28:34.437Z,102660.85
2022-12-27T02:31:16.146Z,102659.67
2022-12-27T02:33:48.598Z,102643.84
2022-12-27T02:36:24.423Z,102637.80
2022-12-27T02:38:56.570Z,102648.78
2022-12-27T02:41:43.757Z,102665.52
2022-12-27T02:44:30.306Z,102664.34
2022-12-27T02:47:17.521Z,102659.09
2022-12-27T02:50:03.899Z,102676.19
2022-12-27T02:53:08.970Z,102675.43
2022-12-27T02:56:10.614Z,102680.34
2022-12-27T02:59:11.774Z,102688.09
2022-12-27T03:02:04.459Z,102682.79
2022-12-27T03:04:38.279Z,102689.33
2022-12-27T03:07:26.842Z,102699.53
2022-12-27T03:10:38.329Z,102697.93
2022-12-27T03:13:27.725Z,102701.98
2022-12-27T03:16:21.491Z,102692.63
2022-12-27T03:19:11.667Z,102704.83
2022-12-27T03:22:05.149Z,102715.00
2022-12-27T03:24:57.421Z,102717.06
2022-12-27T03:27:32.142Z,102722.29
2022-12-27T03:30:22.191Z,102736.55
2022-12-27T03:33:12.738Z,102732.07
2022-12-27T03:36:07.900Z,102734.52
2022-12-27T03:38:40.051Z,102743.02
2022-12-27T03:41:27.568Z,102740.60
2022-12-27T03:43:55.283Z,102721.90
2022-12-27T03:46:37.439Z,102733.67
2022-12-27T03:49:40.420Z,102736.13
2022-12-27T03:52:13.520Z,102737.79
2022-12-27T03:54:43.183Z,102750.02
2022-12-27T03:57:14.912Z,102752.90
2022-12-27T03:59:42.633Z,102754.14
2022-12-27T04:02:10.846Z,102741.13
2022-12-27T04:04:39.232Z,102748.06
2022-12-27T04:07:07.707Z,102756.23
2022-12-27T04:09:53.976Z,102746.95
2022-12-27T04:12:40.324Z,102754.66
2022-12-27T04:15:27.014Z,102752.28
2022-12-27T04:18:13.028Z,102747.83
2022-12-27T04:20:59.430Z,102752.31
2022-12-27T04:23:45.874Z,102747.44
2022-12-27T04:26:32.309Z,102744.17
2022-12-27T04:29:18.857Z,102745.02
2022-12-27T04:32:05.233Z,102758.82
2022-12-27T04:34:45.011Z,102758.85
2022-12-27T04:37:15.599Z,102754.30
2022-12-27T04:40:04.703Z,102759.99
2022-12-27T04:42:51.232Z,102765.29
2022-12-27T04:45:37.483Z,102764.84
2022-12-27T04:48:24.466Z,102770.95
2022-12-27T04:51:10.624Z,102767.68
2022-12-27T04:53:56.927Z,102758.72
2022-12-27T04:56:24.555Z,102749.73
2022-12-27T04:59:10.482Z,102756.20
2022-12-27T05:01:57.065Z,102771.60
2022-12-27T05:04:25.058Z,102772.78
2022-12-27T05:06:52.906Z,102773.99
2022-12-27T05:09:39.089Z,102781.71
2022-12-27T05:12:25.296Z,102778.83
2022-12-27T05:14:52.934Z,102765.36
2022-12-27T05:17:20.635Z,102754.80
2022-12-27T05:19:48.335Z,102756.40
2022-12-27T05:22:34.521Z,102751.10
2022-12-27T05:25:21.065Z,102744.17
2022-12-27T05:27:48.782Z,102751.88
2022-12-27T05:30:16.506Z,102767.81
2022-12-27T05:32:44.137Z,102764.57
2022-12-27T05:35:11.777Z,102771.90
2022-12-27T05:37:39.384Z,102757.67
2022-12-27T05:40:07.699Z,102773.53
2022-12-27T05:42:35.365Z,102779.26
2022-12-27T05:45:03.013Z,102774.38
2022-12-27T05:47:30.654Z,102782.07
2022-12-27T05:49:58.389Z,102780.07
2022-12-27T05:52:26.260Z,102770.69
2022-12-27T05:54:53.879Z,102767.05
2022-12-27T05:57:21.688Z,102767.05
2022-12-27T05:59:49.650Z,102775.17
2022-12-27T06:02:17.518Z,102765.85
2022-12-27T06:04:45.407Z,102766.24
2022-12-27T06:07:14.684Z,102778.83
2022-12-27T06:09:42.518Z,102776.38
2022-12-27T06:12:10.279Z,102763.37
2022-12-27T06:14:37.957Z,102766.60
2022-12-27T06:17:05.641Z,102769.84
2022-12-27T06:19:33.265Z,102784.91
2022-12-27T06:22:01.041Z,102788.18
2022-12-27T06:24:28.637Z,102797.53
2022-12-27T06:26:56.349Z,102787.79
2022-12-27T06:29:23.974Z,102783.73
2022-12-27T06:31:51.803Z,102790.27
2022-12-27T06:34:19.583Z,102797.60
2022-12-27T06:36:51.320Z,102787.07
2022-12-27T06:39:20.241Z,102801.69
2022-12-27T06:41:48.038Z,102791.98
2022-12-27T06:44:15.760Z,102791.59
2022-12-27T06:46:43.414Z,102791.62
2022-12-27T06:49:12.591Z,102802.18
2022-12-27T06:51:40.366Z,102795.64
2022-12-27T06:54:08.177Z,102799.73
2022-12-27T06:56:35.821Z,102801.79
2022-12-27T06:59:03.633Z,102806.63
2022-12-27T07:01:31.412Z,102808.69
2022-12-27T07:04:01.385Z,102809.86
2022-12-27T07:06:32.769Z,102817.22
2022-12-27T07:09:01.793Z,102816.41
2022-12-27T07:11:29.652Z,102818.01
2022-12-27T07:13:57.422Z,102815.52
2022-12-27T07:16:27.405Z,102811.07
2022-12-27T07:18:59.945Z,102818.76
2022-12-27T07:21:30.075Z,102813.88
2022-12-27T07:23:58.250Z,102810.23
2022-12-27T07:26:29.750Z,102811.53
2022-12-27T07:28:59.283Z,102817.61
2022-12-27T07:31:30.878Z,102814.38
2022-12-27T07:33:59.975Z,102817.22
2022-12-27T07:36:31.293Z,102818.82
2022-12-27T07:38:59.392Z,102826.54
2022-12-27T07:41:27.256Z,102824.12
2022-12-27T07:43:55.153Z,102826.54
2022-12-27T07:46:25.132Z,102829.38
2022-12-27T07:48:57.677Z,102828.60
2022-12-27T07:51:25.581Z,102833.08
2022-12-27T07:53:53.411Z,102832.66
2022-12-27T07:56:27.164Z,102835.34
2022-12-27T07:58:57.470Z,102837.76
2022-12-27T08:01:27.445Z,102839.36
2022-12-27T08:03:55.842Z,102844.20
2022-12-27T08:06:23.677Z,102846.26
2022-12-27T08:08:53.719Z,102852.34
2022-12-27T08:11:21.886Z,102838.51
2022-12-27T08:13:49.675Z,102838.51
2022-12-27T08:16:20.950Z,102833.63
2022-12-27T08:18:49.231Z,102833.63
2022-12-27T08:21:17.407Z,102830.73
2022-12-27T08:23:45.181Z,102838.87
2022-12-27T08:26:13.205Z,102831.94
2022-12-27T08:28:40.915Z,102833.99
2022-12-27T08:31:11.141Z,102834.78
2022-12-27T08:33:40.325Z,102843.31
2022-12-27T08:36:28.638Z,102838.02
2022-12-27T08:38:58.280Z,102844.49
2022-12-27T08:41:26.075Z,102842.83
2022-12-27T08:43:54.017Z,102837.98
2022-12-27T08:46:21.844Z,102844.49
2022-12-27T08:48:50.630Z,102838.80
2022-12-27T08:51:31.424Z,102837.20
2022-12-27T08:54:03.503Z,102848.61
2022-12-27T08:56:31.153Z,102845.31
2022-12-27T08:58:58.857Z,102841.29
2022-12-27T09:01:27.076Z,102855.94
2022-12-27T09:03:54.850Z,102859.21
2022-12-27T09:06:24.804Z,102863.30
2022-12-27T09:08:55.705Z,102870.23
2022-12-27T09:11:31.059Z,102864.11
2022-12-27T09:14:01.938Z,102872.26
2022-12-27T09:16:30.650Z,102868.98
2022-12-27T09:19:00.123Z,102868.98
2022-12-27T09:21:30.197Z,102873.53
2022-12-27T09:23:58.041Z,102869.45
2022-12-27T09:26:28.098Z,102882.85
2022-12-27T09:28:57.025Z,102876.77
2022-12-27T09:31:25.718Z,102881.25
2022-12-27T09:33:54.621Z,102884.91
2022-12-27T09:36:24.929Z,102886.16
2022-12-27T09:38:54.247Z,102885.70
2022-12-27T09:44:44.753Z,102890.17
2022-12-27T09:47:29.680Z,102893.77
2022-12-27T09:50:03.697Z,102893.34
2022-12-27T09:52:41.218Z,102890.05
2022-12-27T09:55:31.516Z,102896.55
2022-12-27T09:58:11.936Z,102895.34
2022-12-27T10:00:46.038Z,102896.91
2022-12-27T10:03:14.270Z,102888.34
2022-12-27T10:05:49.819Z,102891.52
2022-12-27T10:08:40.356Z,102886.91
2022-12-27T10:11:37.679Z,102880.70
2022-12-27T10:14:23.393Z,102882.23
2022-12-27T10:17:16.587Z,102882.95
2022-12-27T10:20:21.668Z,102869.45
2022-12-27T10:23:06.219Z,102866.50
2022-12-27T10:25:36.596Z,102875.03
2022-12-27T10:28:17.463Z,102879.09
2022-12-27T10:30:46.232Z,102877.03
2022-12-27T10:33:29.466Z,102873.34
2022-12-27T10:35:58.778Z,102871.27
2022-12-27T10:38:33.468Z,102865.81
2022-12-27T10:41:39.615Z,102866.99
2022-12-27T10:44:12.489Z,102864.51
2022-12-27T10:46:42.362Z,102856.43
2022-12-27T10:49:25.187Z,102850.64
2022-12-27T10:51:56.959Z,102854.17
2022-12-27T10:54:31.623Z,102847.14
2022-12-27T10:57:24.985Z,102862.55
2022-12-27T11:00:14.339Z,102857.18
2022-12-27T11:02:56.429Z,102854.34
2022-12-27T11:05:27.831Z,102857.97
2022-12-27T11:07:56.048Z,102847.34
2022-12-27T11:10:26.997Z,102849.79
2022-12-27T11:13:04.035Z,102844.43
2022-12-27T11:15:35.742Z,102839.03
2022-12-27T11:18:13.794Z,102845.02
2022-12-27T11:20:54.091Z,102847.27
2022-12-27T11:23:25.272Z,102842.20
2022-12-27T11:25:58.728Z,102846.45
2022-12-27T11:28:41.401Z,102844.20
2022-12-27T11:31:15.500Z,102842.47
2022-12-27T11:33:48.539Z,102841.02
2022-12-27T11:36:25.714Z,102841.71
2022-12-27T11:38:53.592Z,102834.29
2022-12-27T11:41:50.315Z,102834.35
2022-12-27T11:44:29.282Z,102832.52
2022-12-27T11:47:13.153Z,102827.29
2022-12-27T11:49:53.453Z,102827.72
2022-12-27T11:52:55.932Z,102824.12
2022-12-27T11:55:54.026Z,102823.70
2022-12-27T11:58:59.272Z,102811.53
2022-12-27T12:01:41.921Z,102812.84
2022-12-27T12:04:43.677Z,102805.91
2022-12-27T12:07:32.810Z,102801.82
2022-12-27T12:10:41.592Z,102793.61
2022-12-27T12:13:12.345Z,102794.36
2022-12-27T12:16:12.628Z,102798.78
2022-12-27T12:19:02.088Z,102794.13
2022-12-27T12:22:01.607Z,102797.38
2022-12-27T12:24:56.284Z,102792.47
2022-12-27T12:27:43.924Z,102797.38
2022-12-27T12:30:30.214Z,102794.20
2022-12-27T12:33:38.035Z,102789.98
2022-12-27T12:36:08.786Z,102788.38
2022-12-27T12:38:51.868Z,102780.92
2022-12-27T12:41:25.665Z,102783.60
2022-12-27T12:43:57.991Z,102785.63
2022-12-27T12:46:39.315Z,102788.84
2022-12-27T12:49:50.798Z,102787.95
2022-12-27T12:52:48.878Z,102787.23
2022-12-27T12:55:40.950Z,102774.97
2022-12-27T12:58:41.480Z,102783.12
2022-12-27T13:01:33.493Z,102783.12
2022-12-27T13:04:33.303Z,102767.65
2022-12-27T13:07:18.519Z,102774.48
2022-12-27T13:10:01.598Z,102770.72
2022-12-27T13:12:53.082Z,102770.91
2022-12-27T13:15:54.895Z,102777.46
2022-12-27T13:18:57.021Z,102770.91
2022-12-27T13:21:31.412Z,102770.55
2022-12-27T13:24:27.768Z,102782.76
2022-12-27T13:27:12.434Z,102770.43
2022-12-27T13:30:03.178Z,102774.41
2022-12-27T13:32:36.768Z,102770.72
2022-12-27T13:35:19.941Z,102773.27
2022-12-27T13:38:32.759Z,102767.65
2022-12-27T13:41:42.641Z,102764.61
2022-12-27T13:44:38.969Z,102771.27
2022-12-27T13:47:24.971Z,102770.20
2022-12-27T13:50:18.599Z,102769.94
2022-12-27T13:53:18.821Z,102780.70
2022-12-27T13:55:56.933Z,102770.27
2022-12-27T13:58:27.322Z,102772.42
2022-12-27T14:01:16.225Z,102775.85
2022-12-27T14:03:55.736Z,102775.89
2022-12-27T14:06:38.265Z,102774.38
2022-12-27T14:09:25.045Z,102757.80
2022-12-27T14:12:04.685Z,102762.77
2022-12-27T14:14:36.805Z,102768.59
2022-12-27T14:17:30.620Z,102772.72
2022-12-27T14:20:10.595Z,102771.15
2022-12-27T14:22:44.027Z,102778.05
2022-12-27T14:25:30.392Z,102777.23
2022-12-27T14:28:35.442Z,102772.78
2022-12-27T14:31:09.157Z,102767.09
2022-12-27T14:34:24.176Z,102759.80
2022-12-27T14:37:48.487Z,102755.32
2022-12-27T14:40:48.876Z,102757.38
2022-12-27T14:43:35.096Z,102758.13
2022-12-27T14:46:14.755Z,102758.49
2022-12-27T14:49:19.950Z,102751.13
2022-12-27T14:52:12.949Z,102756.82
2022-12-27T14:55:05.754Z,102756.07
2022-12-27T14:57:48.397Z,102761.40
2022-12-27T15:00:19.815Z,102771.15
2022-12-27T15:02:50.663Z,102772.81
2022-12-27T15:05:43.290Z,102761.40
2022-12-27T15:08:23.104Z,102775.27
2022-12-27T15:11:02.569Z,102778.05
2022-12-27T15:13:42.032Z,102767.35
2022-12-27T15:16:18.543Z,102770.95
2022-12-27T15:19:14.799Z,102776.18
2022-12-27T15:22:11.781Z,102767.62
2022-12-27T15:24:57.840Z,102765.95
2022-12-27T15:27:45.621Z,102763.04
2022-12-27T15:30:38.559Z,102762.97
2022-12-27T15:33:43.925Z,102760.55
2022-12-27T15:36:19.217Z,102756.40
2022-12-27T15:38:53.983Z,102756.82
2022-12-27T15:41:28.028Z,102746.66
2022-12-27T15:44:26.552Z,102755.22
2022-12-27T15:47:23.441Z,102759.38
2022-12-27T15:50:14.240Z,102765.09
2022-12-27T15:52:47.995Z,102752.05
2022-12-27T15:55:38.104Z,102743.91
2022-12-27T15:58:20.703Z,102747.57
2022-12-27T16:01:23.864Z,102739.07
2022-12-27T16:03:55.598Z,102742.41
2022-12-27T16:06:35.550Z,102738.45
2022-12-27T16:09:22.036Z,102735.24
2022-12-27T16:12:09.154Z,102734.09
2022-12-27T16:14:40.112Z,102730.53
2022-12-27T16:17:40.722Z,102730.23
2022-12-27T16:20:15.358Z,102735.60
2022-12-27T16:22:56.634Z,102731.19
2022-12-27T16:25:30.673Z,102728.02
2022-12-27T16:28:26.516Z,102720.79
2022-12-27T16:30:56.768Z,102717.26
2022-12-27T16:33:27.537Z,102719.05
2022-12-27T16:36:15.845Z,102722.81
2022-12-27T16:38:56.403Z,102727.36
2022-12-27T16:41:26.946Z,102724.55
2022-12-27T16:44:03.405Z,102724.58
2022-12-27T16:46:53.304Z,102719.74
2022-12-27T16:49:55.523Z,102726.64
2022-12-27T16:53:00.820Z,102720.98
2022-12-27T16:55:50.342Z,102712.05
2022-12-27T16:58:30.245Z,102709.24
2022-12-27T17:01:03.990Z,102709.28
2022-12-27T17:03:36.712Z,102709.28
2022-12-27T17:06:33.588Z,102701.10
2022-12-27T17:09:11.163Z,102699.44
2022-12-27T17:11:53.737Z,102698.20
2022-12-27T17:14:27.076Z,102693.35
2022-12-27T17:17:03.989Z,102698.26
2022-12-27T17:19:37.533Z,102695.77
2022-12-27T17:22:08.634Z,102705.16
2022-12-27T17:24:37.045Z,102693.74
2022-12-27T17:27:13.359Z,102693.74
2022-12-27T17:30:12.060Z,102694.14
2022-12-27T17:33:10.841Z,102691.78
2022-12-27T17:36:06.043Z,102684.85
2022-12-27T17:38:33.888Z,102690.51
2022-12-27T17:41:16.051Z,102690.90
2022-12-27T17:44:12.613Z,102680.80
2022-12-27T17:46:56.736Z,102681.19
2022-12-27T17:49:33.207Z,102687.73
2022-12-27T17:52:20.903Z,102680.50
2022-12-27T17:55:07.978Z,102679.03
2022-12-27T17:58:11.172Z,102668.08
2022-12-27T18:00:57.329Z,102680.01
2022-12-27T18:03:33.144Z,102683.45
2022-12-27T18:06:00.949Z,102677.03
2022-12-27T18:08:31.457Z,102673.86
2022-12-27T18:11:00.352Z,102674.48
2022-12-27T18:13:32.574Z,102680.66
2022-12-27T18:16:15.296Z,102682.37
2022-12-27T18:18:48.775Z,102677.52
2022-12-27T18:21:28.231Z,102667.00
2022-12-27T18:23:56.980Z,102668.30
2022-12-27T18:26:40.203Z,102665.03
2022-12-27T18:29:12.644Z,102671.15
2022-12-27T18:31:50.445Z,102670.04
2022-12-27T18:34:45.290Z,102666.02
2022-12-27T18:37:25.684Z,102667.29
2022-12-27T18:39:57.522Z,102666.51
2022-12-27T18:42:36.566Z,102670.56
2022-12-27T18:45:34.765Z,102664.12
2022-12-27T18:48:05.616Z,102665.33
2022-12-27T18:50:35.422Z,102663.73
2022-12-27T18:53:22.649Z,102658.88
2022-12-27T18:56:02.209Z,102656.44
2022-12-27T18:58:30.027Z,102660.55
2022-12-27T19:01:01.468Z,102665.43
2022-12-27T19:03:33.859Z,102673.99
2022-12-27T19:06:12.078Z,102671.54
2022-12-27T19:09:00.096Z,102664.25
2022-12-27T19:11:36.287Z,102661.02
2022-12-27T19:14:06.098Z,102667.91
2022-12-27T19:16:35.911Z,102671.54
2022-12-27T19:19:10.820Z,102674.38
2022-12-27T19:21:40.228Z,102671.15
2022-12-27T19:24:30.610Z,102674.38
2022-12-27T19:27:04.429Z,102673.60
2022-12-27T19:29:39.375Z,102663.46
2022-12-27T19:32:11.095Z,102666.70
2022-12-27T19:34:50.133Z,102673.21
2022-12-27T19:37:18.418Z,102674.81
2022-12-27T19:42:23.332Z,102638.32
2022-12-27T19:44:51.038Z,102639.13
2022-12-27T19:47:18.810Z,102642.77
2022-12-27T19:49:46.605Z,102649.27
2022-12-27T19:52:23.295Z,102648.88
2022-12-27T19:54:53.336Z,102656.56
2022-12-27T19:57:23.162Z,102659.84
2022-12-27T19:59:50.924Z,102651.34
2022-12-27T20:02:19.631Z,102652.51
2022-12-27T20:04:47.503Z,102642.38
2022-12-27T20:07:22.633Z,102643.19
2022-12-27T20:09:50.651Z,102631.02
2022-12-27T20:12:18.492Z,102628.57
2022-12-27T20:14:46.202Z,102626.16
2022-12-27T20:17:13.891Z,102629.78
2022-12-27T20:19:41.750Z,102628.18
2022-12-27T20:22:09.554Z,102630.21
2022-12-27T20:24:38.131Z,102625.34
2022-12-27T20:27:06.438Z,102629.00
2022-12-27T20:29:34.171Z,102626.55
2022-12-27T20:32:01.956Z,102625.34
2022-12-27T20:34:29.684Z,102619.26
2022-12-27T20:36:59.271Z,102629.39
2022-12-27T20:39:27.087Z,102609.97
2022-12-27T20:41:54.796Z,102615.66
2022-12-27T20:44:22.546Z,102617.69
2022-12-27T20:46:51.062Z,102622.98
2022-12-27T20:49:18.739Z,102625.40
2022-12-27T20:51:46.472Z,102633.51
2022-12-27T20:54:16.782Z,102625.01
2022-12-27T20:56:44.573Z,102620.95
2022-12-27T20:59:12.225Z,102619.32
2022-12-27T21:01:40.023Z,102609.18
2022-12-27T21:04:07.794Z,102605.16
2022-12-27T21:06:35.642Z,102598.26
2022-12-27T21:09:03.394Z,102592.60
2022-12-27T21:11:33.206Z,102592.99
2022-12-27T21:14:05.657Z,102587.34
2022-12-27T21:16:35.784Z,102588.16
2022-12-27T21:19:05.813Z,102586.91
2022-12-27T21:21:35.987Z,102583.68
2022-12-27T21:24:04.296Z,102587.34
2022-12-27T21:26:34.473Z,102578.41
2022-12-27T21:29:05.069Z,102578.84
2022-12-27T21:31:33.195Z,102574.75
2022-12-27T21:34:01.650Z,102571.94
2022-12-27T21:36:31.592Z,102573.15
2022-12-27T21:39:00.067Z,102577.17
2022-12-27T21:41:30.960Z,102575.96
2022-12-27T21:43:58.670Z,102574.75
2022-12-27T21:46:34.588Z,102580.44
2022-12-27T21:49:14.181Z,102580.05
2022-12-27T21:51:43.255Z,102580.44
2022-12-27T21:54:11.721Z,102578.02
2022-12-27T21:56:40.302Z,102579.63
2022-12-27T21:59:12.080Z,102567.88
2022-12-27T22:01:50.610Z,102564.25
2022-12-27T22:04:21.582Z,102564.65
2022-12-27T22:06:52.955Z,102565.43
2022-12-27T22:09:21.951Z,102571.52
2022-12-27T22:11:49.949Z,102565.04
2022-12-27T22:14:21.766Z,102567.06
2022-12-27T22:16:52.733Z,102567.88
2022-12-27T22:19:20.460Z,102569.88
2022-12-27T22:21:48.113Z,102565.40
2022-12-27T22:24:20.461Z,102570.27
2022-12-27T22:26:49.630Z,102575.11
2022-12-27T22:29:17.334Z,102577.53
2022-12-27T22:31:44.971Z,102571.45
2022-12-27T22:34:12.667Z,102572.63
2022-12-27T22:53:21.735Z,102574.23
2022-12-27T22:55:50.075Z,102575.05
2022-12-27T22:58:17.992Z,102576.22
2022-12-27T23:00:45.676Z,102576.58
2022-12-27T23:03:13.434Z,102579.78
2022-12-27T23:05:41.214Z,102568.50
2022-12-27T23:08:08.924Z,102578.61
2022-12-27T23:10:36.666Z,102580.66
2022-12-27T23:13:04.304Z,102560.82
2022-12-27T23:15:31.943Z,102568.11
2022-12-27T23:18:00.173Z,102556.38
2022-12-27T23:20:27.804Z,102552.32
2022-12-27T23:22:55.514Z,102555.55
2022-12-27T23:25:23.151Z,102536.95
2022-12-27T23:27:50.851Z,102545.84
2022-12-27T23:30:18.780Z,102548.30
2022-12-27T23:32:46.393Z,102551.92
2022-12-27T23:35:14.096Z,102549.11
2022-12-27T23:37:41.770Z,102549.11
2022-12-27T23:40:10.311Z,102547.94
2022-12-27T23:42:38.010Z,102547.51
2022-12-27T23:45:05.970Z,102552.38
2022-12-27T23:47:33.668Z,102551.53
2022-12-27T23:50:01.390Z,102553.59
2022-12-27T23:52:29.181Z,102545.52
2022-12-27T23:54:56.873Z,102541.88
2022-12-27T23:57:24.520Z,102552.80
2022-12-27T23:59:52.886Z,102541.49
